createdAt,value
2018-10-17T00:01:37.706Z,41.57
2018-10-17T00:04:06.865Z,57.40
2018-10-17T00:06:35.694Z,44.40
2018-10-17T00:09:07.250Z,44.87
2018-10-17T00:11:36.329Z,49.60
2018-10-17T00:14:05.441Z,48.37
2018-10-17T00:16:34.262Z,38.83
2018-10-17T00:19:03.160Z,44.90
2018-10-17T00:21:31.933Z,45.93
2018-10-17T00:24:00.865Z,43.63
2018-10-17T00:26:29.714Z,48.00
2018-10-17T00:28:58.565Z,49.30
2018-10-17T00:31:28.417Z,52.40
2018-10-17T00:33:57.253Z,45.40
2018-10-17T00:36:26.146Z,53.03
2018-10-17T00:38:55.034Z,44.97
2018-10-17T00:41:23.857Z,52.77
2018-10-17T00:43:52.690Z,48.17
2018-10-17T00:46:22.164Z,40.73
2018-10-17T00:48:51.036Z,50.83
2018-10-17T00:51:19.875Z,54.23
2018-10-17T00:53:48.866Z,44.70
2018-10-17T00:56:17.699Z,47.73
2018-10-17T00:59:08.512Z,52.17
2018-10-17T01:01:37.757Z,46.43
2018-10-17T01:04:07.065Z,43.93
2018-10-17T01:06:36.381Z,51.33
2018-10-17T01:09:09.386Z,50.83
2018-10-17T01:11:38.653Z,45.53
2018-10-17T01:14:07.957Z,49.37
2018-10-17T01:16:36.938Z,41.60
2018-10-17T01:19:06.332Z,51.03
2018-10-17T01:21:35.753Z,50.17
2018-10-17T01:24:04.870Z,50.23
2018-10-17T01:26:33.966Z,52.40
2018-10-17T01:29:02.883Z,50.30
2018-10-17T01:31:31.646Z,52.43
2018-10-17T01:34:00.482Z,45.83
2018-10-17T01:36:30.134Z,45.17
2018-10-17T01:38:58.954Z,66.37
2018-10-17T01:41:27.833Z,44.80
2018-10-17T01:43:56.668Z,54.87
2018-10-17T01:46:25.493Z,56.63
2018-10-17T01:48:55.042Z,43.87
2018-10-17T01:51:24.405Z,47.57
2018-10-17T01:53:53.778Z,54.10
2018-10-17T01:56:22.632Z,44.10
2018-10-17T01:58:51.466Z,46.63
2018-10-17T02:01:20.339Z,47.13
2018-10-17T02:03:49.170Z,40.57
2018-10-17T02:06:17.998Z,48.87
2018-10-17T02:08:46.854Z,49.17
2018-10-17T02:11:15.700Z,48.40
2018-10-17T02:13:44.533Z,48.00
2018-10-17T02:16:13.357Z,46.40
2018-10-17T02:18:42.210Z,71.40
2018-10-17T02:21:11.034Z,47.90
2018-10-17T02:23:39.871Z,46.47
2018-10-17T02:26:08.681Z,50.97
2018-10-17T02:28:37.525Z,51.63
2018-10-17T02:31:06.472Z,50.60
2018-10-17T02:33:35.234Z,49.77
2018-10-17T02:36:04.298Z,54.60
2018-10-17T02:38:33.119Z,55.00
2018-10-17T02:41:02.143Z,45.33
2018-10-17T02:43:30.954Z,45.70
2018-10-17T02:45:59.807Z,54.00
2018-10-17T02:48:28.626Z,46.10
2018-10-17T02:50:57.520Z,49.70
2018-10-17T02:53:26.423Z,49.00
2018-10-17T02:55:55.241Z,49.07
2018-10-17T02:58:24.086Z,44.50
2018-10-17T03:00:52.926Z,49.67
2018-10-17T03:03:21.844Z,48.63
2018-10-17T03:05:50.707Z,47.30
2018-10-17T03:08:19.570Z,49.90
2018-10-17T03:10:48.453Z,62.23
2018-10-17T03:13:17.340Z,56.67
2018-10-17T03:15:46.210Z,48.83
2018-10-17T03:18:15.028Z,42.67
2018-10-17T03:23:42.906Z,48.40
2018-10-17T03:26:11.742Z,46.93
2018-10-17T03:28:40.662Z,48.00
2018-10-17T03:31:09.505Z,51.10
2018-10-17T03:33:38.362Z,50.37
2018-10-17T03:36:07.198Z,50.17
2018-10-17T03:38:36.121Z,45.30
2018-10-17T03:41:05.160Z,50.47
2018-10-17T03:43:33.939Z,58.63
2018-10-17T03:46:02.806Z,47.47
2018-10-17T03:48:31.642Z,52.90
2018-10-17T03:51:00.514Z,51.03
2018-10-17T03:53:29.422Z,44.93
2018-10-17T03:55:58.238Z,45.23
2018-10-17T03:58:27.079Z,48.13
2018-10-17T04:00:55.988Z,51.93
2018-10-17T04:03:24.775Z,43.30
2018-10-17T04:05:54.109Z,48.33
2018-10-17T04:08:22.966Z,49.73
2018-10-17T04:10:51.820Z,46.80
2018-10-17T04:13:20.803Z,51.60
2018-10-17T04:15:49.618Z,55.37
2018-10-17T04:18:18.449Z,44.63
2018-10-17T04:20:47.332Z,42.27
2018-10-17T04:23:16.205Z,47.17
2018-10-17T04:25:45.040Z,47.80
2018-10-17T04:28:13.870Z,48.87
2018-10-17T04:30:42.692Z,45.63
2018-10-17T04:34:15.274Z,48.43
2018-10-17T04:36:44.127Z,46.37
2018-10-17T04:39:13.059Z,53.53
2018-10-17T04:41:42.180Z,59.03
2018-10-17T04:44:11.884Z,79.10
2018-10-17T04:46:40.735Z,68.33
2018-10-17T04:49:10.088Z,58.20
2018-10-17T04:51:38.923Z,46.80
2018-10-17T04:54:07.928Z,51.40
2018-10-17T04:56:36.805Z,51.60
2018-10-17T04:59:05.961Z,46.90
2018-10-17T05:01:34.767Z,48.00
2018-10-17T05:04:03.651Z,54.37
2018-10-17T05:06:32.522Z,54.40
2018-10-17T05:09:01.385Z,48.93
2018-10-17T05:11:30.205Z,63.53
2018-10-17T05:13:59.062Z,122.70
2018-10-17T05:16:27.898Z,86.83
2018-10-17T05:18:56.745Z,96.57
2018-10-17T05:21:25.606Z,68.37
2018-10-17T05:23:54.424Z,70.00
2018-10-17T05:26:23.307Z,58.10
2018-10-17T05:28:52.180Z,56.77
2018-10-17T05:31:21.022Z,59.87
2018-10-17T05:34:53.590Z,81.50
2018-10-17T05:37:22.420Z,77.90
2018-10-17T05:39:51.226Z,91.67
2018-10-17T05:42:20.118Z,95.90
2018-10-17T05:44:49.019Z,85.57
2018-10-17T05:47:17.894Z,83.73
2018-10-17T05:49:46.751Z,85.87
2018-10-17T05:52:15.585Z,73.20
2018-10-17T05:54:44.394Z,64.70
2018-10-17T05:57:13.300Z,56.97
2018-10-17T05:59:42.147Z,58.77
2018-10-17T06:02:14.747Z,57.20
2018-10-17T06:04:43.522Z,63.23
2018-10-17T06:07:12.477Z,59.37
2018-10-17T06:09:41.199Z,62.90
2018-10-17T06:12:10.042Z,65.10
2018-10-17T06:14:39.446Z,58.00
2018-10-17T06:17:08.393Z,54.10
2018-10-17T06:19:37.346Z,65.90
2018-10-17T06:22:06.236Z,52.40
2018-10-17T06:24:35.102Z,66.53
2018-10-17T06:27:03.929Z,54.40
2018-10-17T06:29:32.791Z,50.33
2018-10-17T06:32:01.772Z,62.47
2018-10-17T06:34:30.645Z,72.23
2018-10-17T06:36:59.507Z,69.23
2018-10-17T06:39:28.418Z,65.13
2018-10-17T06:41:57.386Z,55.80
2018-10-17T06:44:26.240Z,54.87
2018-10-17T06:46:55.282Z,50.07
2018-10-17T06:49:24.159Z,63.80
2018-10-17T06:51:53.006Z,47.83
2018-10-17T06:54:22.012Z,48.13
2018-10-17T06:56:50.807Z,43.07
2018-10-17T06:59:19.734Z,51.93
2018-10-17T07:01:48.726Z,57.20
2018-10-17T07:04:17.519Z,54.93
2018-10-17T07:06:46.412Z,47.77
2018-10-17T07:09:15.875Z,55.00
2018-10-17T07:11:44.800Z,54.73
2018-10-17T07:14:13.678Z,62.93
2018-10-17T07:16:42.562Z,52.57
2018-10-17T07:19:11.604Z,46.97
2018-10-17T07:21:40.343Z,58.10
2018-10-17T07:24:09.291Z,50.93
2018-10-17T07:26:38.222Z,49.00
2018-10-17T07:29:07.248Z,60.50
2018-10-17T07:31:36.107Z,42.10
2018-10-17T07:34:05.004Z,42.10
2018-10-17T07:36:33.910Z,50.23
2018-10-17T07:39:02.854Z,58.07
2018-10-17T07:41:31.790Z,47.83
2018-10-17T07:44:00.662Z,50.03
2018-10-17T07:46:29.569Z,46.97
2018-10-17T07:48:58.471Z,50.33
2018-10-17T07:51:27.356Z,53.70
2018-10-17T07:53:57.196Z,55.80
2018-10-17T07:56:26.458Z,46.70
2018-10-17T07:58:55.510Z,52.47
2018-10-17T08:01:25.789Z,43.63
2018-10-17T08:03:55.790Z,49.17
2018-10-17T08:06:24.711Z,55.33
2018-10-17T08:08:53.844Z,68.40
2018-10-17T08:11:22.666Z,56.17
2018-10-17T08:13:51.765Z,42.33
2018-10-17T08:16:20.669Z,58.43
2018-10-17T08:18:49.530Z,56.00
2018-10-17T08:21:18.411Z,47.40
2018-10-17T08:23:47.330Z,53.83
2018-10-17T08:26:16.186Z,55.93
2018-10-17T08:28:45.103Z,64.83
2018-10-17T08:31:13.983Z,60.17
2018-10-17T08:33:42.895Z,48.10
2018-10-17T08:36:12.951Z,56.47
2018-10-17T08:38:41.679Z,48.20
2018-10-17T08:41:10.629Z,58.57
2018-10-17T08:43:39.470Z,75.93
2018-10-17T08:46:08.353Z,58.60
2018-10-17T08:48:37.220Z,64.40
2018-10-17T08:51:06.100Z,59.90
2018-10-17T08:53:34.999Z,83.60
2018-10-17T08:56:03.953Z,65.30
2018-10-17T08:58:32.786Z,54.13
2018-10-17T09:01:01.647Z,55.10
2018-10-17T09:03:30.583Z,58.03
2018-10-17T09:05:59.487Z,72.73
2018-10-17T09:08:28.394Z,51.17
2018-10-17T09:10:57.240Z,52.70
2018-10-17T09:13:26.256Z,54.80
2018-10-17T09:15:55.165Z,73.73
2018-10-17T09:18:24.033Z,63.63
2018-10-17T09:20:53.785Z,53.23
2018-10-17T09:23:22.064Z,53.17
2018-10-17T09:25:50.953Z,60.00
2018-10-17T09:28:19.783Z,63.70
2018-10-17T09:30:48.570Z,62.10
2018-10-17T09:33:17.350Z,66.83
2018-10-17T09:35:46.186Z,74.30
2018-10-17T09:38:14.852Z,63.77
2018-10-17T09:40:43.547Z,60.67
2018-10-17T09:43:12.311Z,63.27
2018-10-17T09:45:40.946Z,62.17
2018-10-17T09:48:09.920Z,69.20
2018-10-17T09:50:38.586Z,52.23
2018-10-17T09:53:07.323Z,70.90
2018-10-17T09:55:35.997Z,47.93
2018-10-17T09:58:04.802Z,67.97
2018-10-17T10:00:39.078Z,61.33
2018-10-17T10:03:07.765Z,61.47
2018-10-17T10:05:36.442Z,49.20
2018-10-17T10:08:05.386Z,47.07
2018-10-17T10:10:34.124Z,57.40
2018-10-17T10:13:02.837Z,51.37
2018-10-17T10:15:31.641Z,53.00
2018-10-17T10:18:00.481Z,53.63
2018-10-17T10:20:29.401Z,45.23
2018-10-17T10:22:58.248Z,55.03
2018-10-17T10:25:27.663Z,46.70
2018-10-17T10:27:56.374Z,59.00
2018-10-17T10:30:25.217Z,46.03
2018-10-17T10:32:53.963Z,47.67
2018-10-17T10:35:22.718Z,49.93
2018-10-17T10:37:51.459Z,50.00
2018-10-17T10:40:20.120Z,43.30
2018-10-17T10:42:49.097Z,40.83
2018-10-17T10:45:18.009Z,50.83
2018-10-17T10:47:46.562Z,48.33
2018-10-17T10:50:15.425Z,58.63
2018-10-17T10:52:44.102Z,41.70
2018-10-17T10:55:12.815Z,42.17
2018-10-17T10:57:41.502Z,49.90
2018-10-17T11:00:10.282Z,42.60
2018-10-17T11:02:38.973Z,39.33
2018-10-17T11:05:07.734Z,39.90
2018-10-17T11:07:36.352Z,50.07
2018-10-17T11:10:05.323Z,42.00
2018-10-17T11:12:34.239Z,36.97
2018-10-17T11:15:03.293Z,34.33
2018-10-17T11:17:32.051Z,41.33
2018-10-17T11:20:00.892Z,61.47
2018-10-17T11:22:29.838Z,44.90
2018-10-17T11:24:58.778Z,36.00
2018-10-17T11:27:28.088Z,43.60
2018-10-17T11:29:56.939Z,43.53
2018-10-17T11:32:25.967Z,42.63
2018-10-17T11:34:54.995Z,34.03
2018-10-17T11:37:23.884Z,36.90
2018-10-17T11:39:52.641Z,34.70
2018-10-17T11:42:21.559Z,34.33
2018-10-17T11:44:50.440Z,29.90
2018-10-17T11:47:19.306Z,43.47
2018-10-17T11:49:48.287Z,38.13
2018-10-17T11:52:17.191Z,40.57
2018-10-17T11:54:46.402Z,40.47
2018-10-17T11:57:15.437Z,37.87
2018-10-17T11:59:44.289Z,36.93
2018-10-17T12:02:13.091Z,31.17
2018-10-17T12:04:42.157Z,34.30
2018-10-17T12:07:10.835Z,36.90
2018-10-17T12:09:39.754Z,28.93
2018-10-17T12:12:08.691Z,29.50
2018-10-17T12:14:38.001Z,43.30
2018-10-17T12:17:06.710Z,26.00
2018-10-17T12:19:35.658Z,36.90
2018-10-17T12:22:04.568Z,36.83
2018-10-17T12:24:35.017Z,29.90
2018-10-17T12:27:03.882Z,23.80
2018-10-17T12:29:32.576Z,24.17
2018-10-17T12:32:01.317Z,36.53
2018-10-17T12:34:30.166Z,36.63
2018-10-17T12:36:58.927Z,35.30
2018-10-17T12:39:28.113Z,34.83
2018-10-17T12:41:56.847Z,31.97
2018-10-17T12:44:25.996Z,22.40
2018-10-17T12:46:54.833Z,28.73
2018-10-17T12:49:23.719Z,28.40
2018-10-17T12:51:52.640Z,25.30
2018-10-17T12:54:21.570Z,22.47
2018-10-17T12:56:50.398Z,29.50
2018-10-17T12:59:19.343Z,33.37
2018-10-17T13:01:48.210Z,26.50
2018-10-17T13:04:17.062Z,26.53
2018-10-17T13:06:45.906Z,30.87
2018-10-17T13:09:14.842Z,28.73
2018-10-17T13:11:43.744Z,32.93
2018-10-17T13:14:12.590Z,29.77
2018-10-17T13:16:41.421Z,28.43
2018-10-17T13:19:10.362Z,36.40
2018-10-17T13:21:39.203Z,29.27
2018-10-17T13:24:08.082Z,26.53
2018-10-17T13:26:37.040Z,25.00
2018-10-17T13:29:06.585Z,27.37
2018-10-17T13:31:35.743Z,21.77
2018-10-17T13:34:05.960Z,24.40
2018-10-17T13:36:35.056Z,20.50
2018-10-17T13:39:06.031Z,38.70
2018-10-17T13:41:34.969Z,26.00
2018-10-17T13:44:03.993Z,20.30
2018-10-17T13:46:32.918Z,18.57
2018-10-17T13:49:01.947Z,19.50
2018-10-17T13:51:30.803Z,21.30
2018-10-17T13:53:59.729Z,23.07
2018-10-17T14:03:23.350Z,23.57
2018-10-17T14:05:52.191Z,22.87
2018-10-17T14:08:21.065Z,22.83
2018-10-17T14:10:50.039Z,22.13
2018-10-17T14:13:18.975Z,23.60
2018-10-17T14:15:47.854Z,21.23
2018-10-17T14:18:16.808Z,21.50
2018-10-17T14:20:45.830Z,22.00
2018-10-17T14:23:14.798Z,21.30
2018-10-17T14:25:43.708Z,27.90
2018-10-17T14:28:12.602Z,30.83
2018-10-17T14:30:41.651Z,28.23
2018-10-17T14:33:10.595Z,23.77
2018-10-17T14:35:39.472Z,33.83
2018-10-17T14:38:08.376Z,27.60
2018-10-17T14:40:37.295Z,29.40
2018-10-17T14:43:06.142Z,23.83
2018-10-17T14:45:35.049Z,31.87
2018-10-17T14:48:03.946Z,28.47
2018-10-17T14:50:32.815Z,26.70
2018-10-17T14:53:01.742Z,34.53
2018-10-17T14:55:30.665Z,32.67
2018-10-17T14:57:59.580Z,28.20
2018-10-17T15:00:28.459Z,31.07
2018-10-17T15:02:57.362Z,30.50
2018-10-17T15:05:26.262Z,27.73
2018-10-17T15:07:55.152Z,40.23
2018-10-17T15:10:24.116Z,30.27
2018-10-17T15:12:53.040Z,32.00
2018-10-17T15:15:21.912Z,30.67
2018-10-17T15:17:50.814Z,34.00
2018-10-17T15:20:19.679Z,33.53
2018-10-17T15:22:48.597Z,37.57
2018-10-17T15:25:17.470Z,38.60
2018-10-17T15:27:46.330Z,43.90
2018-10-17T15:30:15.441Z,45.20
2018-10-17T15:32:44.214Z,37.73
2018-10-17T15:35:13.131Z,36.27
2018-10-17T15:37:42.014Z,43.23
2018-10-17T15:40:11.690Z,34.97
2018-10-17T15:42:40.684Z,46.63
2018-10-17T15:45:09.665Z,39.70
2018-10-17T15:47:38.494Z,45.33
2018-10-17T15:50:07.625Z,43.67
2018-10-17T15:52:36.495Z,45.47
2018-10-17T15:55:05.919Z,38.97
2018-10-17T15:57:34.848Z,49.60
2018-10-17T16:00:06.889Z,59.47
2018-10-17T16:02:35.570Z,44.43
2018-10-17T16:05:05.748Z,50.97
2018-10-17T16:07:34.643Z,49.00
2018-10-17T16:10:03.487Z,49.80
2018-10-17T16:12:32.417Z,59.80
2018-10-17T16:15:01.319Z,53.20
2018-10-17T16:17:30.634Z,60.87
2018-10-17T16:19:59.553Z,59.67
2018-10-17T16:22:28.352Z,64.03
2018-10-17T16:24:57.214Z,57.67
2018-10-17T16:27:26.056Z,52.60
2018-10-17T16:29:55.167Z,61.43
2018-10-17T16:32:23.991Z,87.90
2018-10-17T16:34:52.954Z,72.43
2018-10-17T16:37:21.820Z,78.77
2018-10-17T16:39:50.633Z,71.33
2018-10-17T16:42:19.540Z,76.00
2018-10-17T16:44:48.399Z,65.03
2018-10-17T16:47:17.374Z,62.27
2018-10-17T16:49:46.312Z,64.80
2018-10-17T16:52:15.151Z,70.83
2018-10-17T16:54:44.069Z,90.30
2018-10-17T16:57:12.924Z,114.40
2018-10-17T16:59:41.879Z,72.00
2018-10-17T17:02:10.719Z,83.53
2018-10-17T17:04:39.597Z,84.30
2018-10-17T17:07:08.444Z,96.00
2018-10-17T17:09:37.301Z,81.70
2018-10-17T17:12:06.549Z,87.80
2018-10-17T17:14:35.452Z,78.00
2018-10-17T17:17:04.497Z,66.13
2018-10-17T17:19:33.426Z,68.47
2018-10-17T17:22:02.450Z,68.63
2018-10-17T17:24:31.348Z,63.97
2018-10-17T17:27:00.267Z,61.40
2018-10-17T17:29:29.158Z,69.13
2018-10-17T17:31:57.972Z,70.17
2018-10-17T17:34:26.906Z,62.43
2018-10-17T17:36:55.756Z,77.00
2018-10-17T17:39:24.634Z,59.33
2018-10-17T17:41:53.518Z,71.37
2018-10-17T17:44:22.383Z,61.37
2018-10-17T17:46:51.179Z,82.77
2018-10-17T17:49:20.018Z,105.33
2018-10-17T17:51:48.895Z,65.80
2018-10-17T17:54:18.262Z,61.57
2018-10-17T17:56:47.129Z,75.60
2018-10-17T17:59:15.974Z,64.20
2018-10-17T18:01:44.804Z,68.17
2018-10-17T18:04:13.738Z,65.77
2018-10-17T18:06:42.768Z,71.80
2018-10-17T18:09:13.451Z,65.77
2018-10-17T18:11:42.287Z,61.10
2018-10-17T18:14:11.227Z,57.17
2018-10-17T18:16:40.042Z,56.47
2018-10-17T18:19:08.874Z,55.70
2018-10-17T18:21:37.715Z,55.40
2018-10-17T18:24:06.604Z,62.27
2018-10-17T18:26:36.371Z,66.73
2018-10-17T18:29:05.310Z,64.87
2018-10-17T18:31:34.198Z,74.47
2018-10-17T18:34:03.103Z,80.87
2018-10-17T18:36:32.100Z,64.77
2018-10-17T18:39:01.035Z,61.93
2018-10-17T18:41:29.959Z,62.00
2018-10-17T18:43:58.778Z,73.23
2018-10-17T18:46:27.630Z,71.67
2018-10-17T18:48:56.532Z,73.23
2018-10-17T18:51:25.334Z,58.57
2018-10-17T18:53:54.200Z,80.53
2018-10-17T18:56:23.029Z,66.77
2018-10-17T18:58:51.899Z,75.67
2018-10-17T19:01:20.766Z,61.60
2018-10-17T19:03:49.575Z,67.03
2018-10-17T19:06:18.466Z,70.60
2018-10-17T19:08:47.384Z,68.33
2018-10-17T19:11:16.319Z,69.97
2018-10-17T19:13:45.184Z,61.23
2018-10-17T19:16:14.311Z,69.87
2018-10-17T19:18:43.065Z,68.07
2018-10-17T19:21:11.937Z,77.07
2018-10-17T19:23:40.799Z,61.97
2018-10-17T19:26:09.638Z,58.07
2018-10-17T19:28:38.491Z,62.00
2018-10-17T19:31:07.387Z,70.83
2018-10-17T19:33:36.224Z,81.13
2018-10-17T19:36:05.360Z,61.00
2018-10-17T19:38:34.182Z,66.40
2018-10-17T19:41:03.110Z,66.00
2018-10-17T19:43:33.126Z,82.80
2018-10-17T19:46:02.019Z,72.23
2018-10-17T19:48:30.831Z,67.40
2018-10-17T19:50:59.709Z,80.80
2018-10-17T19:53:28.510Z,78.60
2018-10-17T19:55:57.434Z,74.07
2018-10-17T19:58:26.191Z,65.60
2018-10-17T20:00:55.042Z,73.40
2018-10-17T20:03:23.930Z,70.60
2018-10-17T20:05:52.782Z,73.43
2018-10-17T20:08:21.612Z,71.33
2018-10-17T20:10:50.433Z,74.33
2018-10-17T20:13:19.292Z,83.23
2018-10-17T20:15:48.111Z,72.50
2018-10-17T20:18:16.954Z,72.50
2018-10-17T20:20:45.786Z,78.67
2018-10-17T20:23:14.614Z,63.33
2018-10-17T20:25:43.442Z,66.00
2018-10-17T20:28:12.268Z,78.77
2018-10-17T20:30:41.117Z,74.67
2018-10-17T20:33:09.984Z,79.70
2018-10-17T20:35:38.781Z,68.80
2018-10-17T20:38:07.622Z,87.13
2018-10-17T20:40:36.479Z,77.07
2018-10-17T20:43:05.324Z,70.43
2018-10-17T20:45:34.146Z,71.97
2018-10-17T20:48:02.986Z,67.13
2018-10-17T20:50:31.859Z,74.23
2018-10-17T20:53:00.668Z,74.57
2018-10-17T20:55:29.534Z,74.33
2018-10-17T20:57:58.363Z,84.73
2018-10-17T21:00:27.491Z,66.97
2018-10-17T21:02:56.362Z,78.50
2018-10-17T21:05:25.555Z,72.40
2018-10-17T21:07:54.504Z,82.77
2018-10-17T21:10:23.523Z,148.47
2018-10-17T21:12:52.594Z,174.97
2018-10-17T21:15:21.418Z,183.37
2018-10-17T21:17:50.322Z,190.13
2018-10-17T21:20:19.190Z,143.90
2018-10-17T21:22:48.014Z,130.30
2018-10-17T21:25:16.841Z,115.33
2018-10-17T21:27:45.687Z,92.73
2018-10-17T21:30:14.518Z,98.23
2018-10-17T21:32:43.366Z,120.57
2018-10-17T21:35:12.218Z,109.50
2018-10-17T21:37:41.093Z,102.17
2018-10-17T21:40:09.950Z,105.63
2018-10-17T21:42:38.818Z,94.93
2018-10-17T21:45:08.323Z,96.53
2018-10-17T21:47:37.162Z,81.83
2018-10-17T21:50:06.383Z,93.03
2018-10-17T21:52:35.102Z,109.30
2018-10-17T21:55:03.950Z,99.47
2018-10-17T21:57:32.807Z,86.90
2018-10-17T22:00:01.663Z,93.60
2018-10-17T22:02:30.484Z,88.40
2018-10-17T22:04:59.300Z,85.93
2018-10-17T22:07:28.132Z,93.00
2018-10-17T22:09:57.083Z,78.90
2018-10-17T22:12:25.882Z,85.27
2018-10-17T22:14:54.746Z,84.13
2018-10-17T22:17:29.413Z,75.57
2018-10-17T22:19:58.520Z,82.37
2018-10-17T22:22:27.788Z,87.10
2018-10-17T22:24:57.086Z,82.30
2018-10-17T22:27:26.538Z,83.57
2018-10-17T22:29:55.389Z,82.10
2018-10-17T22:32:24.219Z,73.73
2018-10-17T22:34:53.058Z,73.97
2018-10-17T22:37:21.951Z,69.07
2018-10-17T22:39:50.839Z,88.80
2018-10-17T22:42:19.675Z,74.67
2018-10-17T22:44:48.567Z,78.97
2018-10-17T22:47:17.389Z,75.73
2018-10-17T22:49:46.198Z,81.57
2018-10-17T22:52:15.032Z,75.73
2018-10-17T22:54:43.974Z,81.03
2018-10-17T22:57:12.884Z,95.47
2018-10-17T22:59:41.738Z,102.83
2018-10-17T23:02:10.617Z,70.60
2018-10-17T23:04:39.402Z,78.30
2018-10-17T23:07:08.264Z,85.67
2018-10-17T23:09:37.121Z,95.87
2018-10-17T23:12:06.466Z,75.37
2018-10-17T23:14:35.298Z,86.33
2018-10-17T23:17:04.154Z,93.33
2018-10-17T23:19:33.146Z,84.60
2018-10-17T23:22:02.003Z,85.77
2018-10-17T23:24:30.851Z,89.63
2018-10-17T23:26:59.685Z,92.63
2018-10-17T23:29:28.526Z,90.20
2018-10-17T23:31:57.431Z,94.30
2018-10-17T23:34:26.311Z,80.37
2018-10-17T23:36:55.154Z,89.70
2018-10-17T23:39:24.005Z,90.90
2018-10-17T23:41:52.901Z,89.30
2018-10-17T23:44:21.708Z,90.13
2018-10-17T23:46:50.534Z,80.80
2018-10-17T23:49:19.389Z,87.23
2018-10-17T23:51:48.230Z,91.37
2018-10-17T23:54:17.185Z,94.27
2018-10-17T23:56:46.014Z,89.00
2018-10-17T23:59:14.870Z,94.27
